sensor_id;sensor_type;location;lat;lon;timestamp;P1;durP1;ratioP1;P2;durP2;ratioP2
18931;SDS011;9598;50.954;3.112;2024-03-06T00:02:47;11.02;;;9.95;;
18931;SDS011;9598;50.954;3.112;2024-03-06T00:07:51;10.88;;;9.98;;
18931;SDS011;9598;50.954;3.112;2024-03-06T00:12:53;10.38;;;9.48;;
18931;SDS011;9598;50.954;3.112;2024-03-06T00:17:55;10.25;;;9.32;;
18931;SDS011;9598;50.954;3.112;2024-03-06T00:23:00;11.13;;;9.85;;
18931;SDS011;9598;50.954;3.112;2024-03-06T00:28:03;10.68;;;9.68;;
18931;SDS011;9598;50.954;3.112;2024-03-06T00:33:06;11.50;;;10.48;;
18931;SDS011;9598;50.954;3.112;2024-03-06T00:38:10;11.23;;;10.25;;
18931;SDS011;9598;50.954;3.112;2024-03-06T00:43:12;11.25;;;10.25;;
18931;SDS011;9598;50.954;3.112;2024-03-06T00:48:14;12.15;;;10.95;;
18931;SDS011;9598;50.954;3.112;2024-03-06T00:53:17;13.73;;;12.50;;
18931;SDS011;9598;50.954;3.112;2024-03-06T00:58:19;12.13;;;11.05;;
18931;SDS011;9598;50.954;3.112;2024-03-06T01:03:22;10.25;;;9.35;;
18931;SDS011;9598;50.954;3.112;2024-03-06T01:08:26;10.90;;;9.90;;
18931;SDS011;9598;50.954;3.112;2024-03-06T01:13:28;12.82;;;11.27;;
18931;SDS011;9598;50.954;3.112;2024-03-06T01:18:30;12.45;;;11.02;;
18931;SDS011;9598;50.954;3.112;2024-03-06T01:23:34;12.05;;;10.85;;
18931;SDS011;9598;50.954;3.112;2024-03-06T01:28:36;12.07;;;10.93;;
18931;SDS011;9598;50.954;3.112;2024-03-06T01:33:38;11.60;;;10.32;;
18931;SDS011;9598;50.954;3.112;2024-03-06T01:38:42;12.13;;;11.02;;
18931;SDS011;9598;50.954;3.112;2024-03-06T01:43:46;12.55;;;11.07;;
18931;SDS011;9598;50.954;3.112;2024-03-06T01:48:49;11.52;;;10.35;;
18931;SDS011;9598;50.954;3.112;2024-03-06T01:53:53;12.45;;;11.15;;
18931;SDS011;9598;50.954;3.112;2024-03-06T01:58:55;11.27;;;10.25;;
18931;SDS011;9598;50.954;3.112;2024-03-06T02:03:58;11.20;;;10.15;;
18931;SDS011;9598;50.954;3.112;2024-03-06T02:09:02;11.93;;;10.45;;
18931;SDS011;9598;50.954;3.112;2024-03-06T02:14:04;11.35;;;10.35;;
18931;SDS011;9598;50.954;3.112;2024-03-06T02:19:09;12.00;;;10.85;;
18931;SDS011;9598;50.954;3.112;2024-03-06T02:24:14;12.13;;;10.93;;
18931;SDS011;9598;50.954;3.112;2024-03-06T02:29:16;12.18;;;10.98;;
18931;SDS011;9598;50.954;3.112;2024-03-06T02:34:18;11.88;;;10.63;;
18931;SDS011;9598;50.954;3.112;2024-03-06T02:39:22;12.10;;;10.98;;
18931;SDS011;9598;50.954;3.112;2024-03-06T02:44:24;12.60;;;11.45;;
18931;SDS011;9598;50.954;3.112;2024-03-06T02:49:26;13.05;;;11.75;;
18931;SDS011;9598;50.954;3.112;2024-03-06T02:54:30;12.70;;;11.50;;
18931;SDS011;9598;50.954;3.112;2024-03-06T02:59:32;12.35;;;11.15;;
18931;SDS011;9598;50.954;3.112;2024-03-06T03:04:34;14.88;;;12.68;;
18931;SDS011;9598;50.954;3.112;2024-03-06T03:09:38;13.90;;;12.43;;
18931;SDS011;9598;50.954;3.112;2024-03-06T03:14:40;20.00;;;16.48;;
18931;SDS011;9598;50.954;3.112;2024-03-06T03:19:43;24.08;;;19.52;;
18931;SDS011;9598;50.954;3.112;2024-03-06T03:24:46;24.17;;;19.73;;
18931;SDS011;9598;50.954;3.112;2024-03-06T03:29:49;22.70;;;19.00;;
18931;SDS011;9598;50.954;3.112;2024-03-06T03:34:51;21.00;;;18.35;;
18931;SDS011;9598;50.954;3.112;2024-03-06T03:39:54;22.58;;;18.42;;
18931;SDS011;9598;50.954;3.112;2024-03-06T03:44:57;22.85;;;17.92;;
18931;SDS011;9598;50.954;3.112;2024-03-06T03:49:59;22.35;;;18.02;;
18931;SDS011;9598;50.954;3.112;2024-03-06T03:55:02;20.95;;;18.10;;
18931;SDS011;9598;50.954;3.112;2024-03-06T04:00:06;22.15;;;18.00;;
18931;SDS011;9598;50.954;3.112;2024-03-06T04:05:12;23.52;;;17.88;;
18931;SDS011;9598;50.954;3.112;2024-03-06T04:10:16;24.90;;;19.23;;
18931;SDS011;9598;50.954;3.112;2024-03-06T04:15:18;22.98;;;18.15;;
18931;SDS011;9598;50.954;3.112;2024-03-06T04:20:20;20.98;;;17.77;;
18931;SDS011;9598;50.954;3.112;2024-03-06T04:25:24;23.52;;;18.75;;
18931;SDS011;9598;50.954;3.112;2024-03-06T04:30:26;23.83;;;19.15;;
18931;SDS011;9598;50.954;3.112;2024-03-06T04:35:28;26.48;;;21.63;;
18931;SDS011;9598;50.954;3.112;2024-03-06T04:40:32;28.33;;;23.33;;
18931;SDS011;9598;50.954;3.112;2024-03-06T04:45:34;27.95;;;21.65;;
18931;SDS011;9598;50.954;3.112;2024-03-06T04:50:36;25.88;;;20.58;;
18931;SDS011;9598;50.954;3.112;2024-03-06T04:55:40;28.25;;;21.95;;
18931;SDS011;9598;50.954;3.112;2024-03-06T05:00:42;29.02;;;21.83;;
18931;SDS011;9598;50.954;3.112;2024-03-06T05:05:45;29.15;;;23.27;;
18931;SDS011;9598;50.954;3.112;2024-03-06T05:10:48;27.33;;;21.75;;
18931;SDS011;9598;50.954;3.112;2024-03-06T05:15:50;28.50;;;22.42;;
18931;SDS011;9598;50.954;3.112;2024-03-06T05:20:54;30.40;;;23.50;;
18931;SDS011;9598;50.954;3.112;2024-03-06T05:25:57;28.63;;;22.25;;
18931;SDS011;9598;50.954;3.112;2024-03-06T05:30:59;26.75;;;21.38;;
18931;SDS011;9598;50.954;3.112;2024-03-06T05:36:10;27.30;;;21.92;;
18931;SDS011;9598;50.954;3.112;2024-03-06T05:41:14;27.52;;;20.15;;
18931;SDS011;9598;50.954;3.112;2024-03-06T05:46:18;24.02;;;20.73;;
18931;SDS011;9598;50.954;3.112;2024-03-06T05:51:21;22.95;;;18.80;;
18931;SDS011;9598;50.954;3.112;2024-03-06T05:56:24;23.08;;;20.05;;
18931;SDS011;9598;50.954;3.112;2024-03-06T06:01:26;20.70;;;18.25;;
18931;SDS011;9598;50.954;3.112;2024-03-06T06:06:28;23.02;;;18.70;;
18931;SDS011;9598;50.954;3.112;2024-03-06T06:11:31;19.55;;;17.45;;
18931;SDS011;9598;50.954;3.112;2024-03-06T06:16:34;21.15;;;17.05;;
18931;SDS011;9598;50.954;3.112;2024-03-06T06:21:38;20.75;;;18.15;;
18931;SDS011;9598;50.954;3.112;2024-03-06T06:26:41;20.67;;;18.23;;
18931;SDS011;9598;50.954;3.112;2024-03-06T06:31:43;20.58;;;17.30;;
18931;SDS011;9598;50.954;3.112;2024-03-06T06:36:45;20.25;;;17.20;;
18931;SDS011;9598;50.954;3.112;2024-03-06T06:41:49;21.63;;;18.20;;
18931;SDS011;9598;50.954;3.112;2024-03-06T06:46:51;23.48;;;18.40;;
18931;SDS011;9598;50.954;3.112;2024-03-06T06:51:53;25.92;;;20.98;;
18931;SDS011;9598;50.954;3.112;2024-03-06T06:56:57;35.20;;;26.35;;
18931;SDS011;9598;50.954;3.112;2024-03-06T07:01:59;38.00;;;27.60;;
18931;SDS011;9598;50.954;3.112;2024-03-06T07:07:01;43.72;;;27.52;;
18931;SDS011;9598;50.954;3.112;2024-03-06T07:12:05;47.72;;;28.30;;
18931;SDS011;9598;50.954;3.112;2024-03-06T07:17:08;44.15;;;27.60;;
18931;SDS011;9598;50.954;3.112;2024-03-06T07:22:10;36.38;;;26.75;;
18931;SDS011;9598;50.954;3.112;2024-03-06T07:27:14;38.85;;;26.90;;
18931;SDS011;9598;50.954;3.112;2024-03-06T07:32:16;34.10;;;26.23;;
18931;SDS011;9598;50.954;3.112;2024-03-06T07:37:18;34.25;;;25.92;;
18931;SDS011;9598;50.954;3.112;2024-03-06T07:42:23;31.95;;;25.63;;
18931;SDS011;9598;50.954;3.112;2024-03-06T07:47:25;28.73;;;24.70;;
18931;SDS011;9598;50.954;3.112;2024-03-06T07:52:27;27.75;;;23.85;;
18931;SDS011;9598;50.954;3.112;2024-03-06T07:57:30;28.60;;;23.95;;
18931;SDS011;9598;50.954;3.112;2024-03-06T08:02:32;25.13;;;22.55;;
18931;SDS011;9598;50.954;3.112;2024-03-06T08:07:35;25.02;;;22.50;;
18931;SDS011;9598;50.954;3.112;2024-03-06T08:12:39;26.20;;;23.63;;
18931;SDS011;9598;50.954;3.112;2024-03-06T08:17:42;25.65;;;22.67;;
18931;SDS011;9598;50.954;3.112;2024-03-06T08:22:45;26.45;;;23.40;;
18931;SDS011;9598;50.954;3.112;2024-03-06T08:27:49;24.15;;;21.65;;
18931;SDS011;9598;50.954;3.112;2024-03-06T08:32:51;23.38;;;20.98;;
18931;SDS011;9598;50.954;3.112;2024-03-06T08:37:53;25.42;;;21.27;;
18931;SDS011;9598;50.954;3.112;2024-03-06T08:42:57;26.63;;;23.80;;
18931;SDS011;9598;50.954;3.112;2024-03-06T08:47:59;25.50;;;22.70;;
18931;SDS011;9598;50.954;3.112;2024-03-06T08:53:01;28.05;;;25.05;;
18931;SDS011;9598;50.954;3.112;2024-03-06T08:58:04;28.50;;;24.83;;
18931;SDS011;9598;50.954;3.112;2024-03-06T09:03:07;29.77;;;26.55;;
18931;SDS011;9598;50.954;3.112;2024-03-06T09:08:09;30.73;;;27.40;;
18931;SDS011;9598;50.954;3.112;2024-03-06T09:13:14;30.50;;;27.33;;
18931;SDS011;9598;50.954;3.112;2024-03-06T09:18:16;30.38;;;27.23;;
18931;SDS011;9598;50.954;3.112;2024-03-06T09:23:18;32.00;;;28.67;;
18931;SDS011;9598;50.954;3.112;2024-03-06T09:28:23;34.55;;;30.83;;
18931;SDS011;9598;50.954;3.112;2024-03-06T09:33:25;32.90;;;29.40;;
18931;SDS011;9598;50.954;3.112;2024-03-06T09:38:27;33.90;;;28.98;;
18931;SDS011;9598;50.954;3.112;2024-03-06T09:43:31;35.67;;;31.13;;
18931;SDS011;9598;50.954;3.112;2024-03-06T09:48:33;39.95;;;33.28;;
18931;SDS011;9598;50.954;3.112;2024-03-06T09:53:36;36.65;;;31.58;;
18931;SDS011;9598;50.954;3.112;2024-03-06T09:58:40;33.65;;;29.58;;
18931;SDS011;9598;50.954;3.112;2024-03-06T10:03:43;36.63;;;30.90;;
18931;SDS011;9598;50.954;3.112;2024-03-06T10:08:46;31.60;;;27.80;;
18931;SDS011;9598;50.954;3.112;2024-03-06T10:13:53;27.65;;;24.45;;
18931;SDS011;9598;50.954;3.112;2024-03-06T10:18:55;31.90;;;25.85;;
18931;SDS011;9598;50.954;3.112;2024-03-06T10:23:58;27.33;;;22.95;;
18931;SDS011;9598;50.954;3.112;2024-03-06T10:29:02;21.40;;;18.17;;
18931;SDS011;9598;50.954;3.112;2024-03-06T10:34:04;23.15;;;20.13;;
18931;SDS011;9598;50.954;3.112;2024-03-06T10:39:06;24.02;;;19.25;;
18931;SDS011;9598;50.954;3.112;2024-03-06T10:44:13;20.48;;;18.10;;
18931;SDS011;9598;50.954;3.112;2024-03-06T10:49:18;16.58;;;13.63;;
18931;SDS011;9598;50.954;3.112;2024-03-06T10:54:21;18.83;;;15.43;;
18931;SDS011;9598;50.954;3.112;2024-03-06T10:59:27;22.23;;;19.83;;
18931;SDS011;9598;50.954;3.112;2024-03-06T11:04:31;18.80;;;14.35;;
18931;SDS011;9598;50.954;3.112;2024-03-06T11:09:35;15.38;;;13.20;;
18931;SDS011;9598;50.954;3.112;2024-03-06T11:14:40;13.05;;;11.73;;
18931;SDS011;9598;50.954;3.112;2024-03-06T11:30:56;16.15;;;14.65;;
18931;SDS011;9598;50.954;3.112;2024-03-06T11:36:15;18.92;;;16.92;;
18931;SDS011;9598;50.954;3.112;2024-03-06T11:41:21;21.00;;;18.88;;
18931;SDS011;9598;50.954;3.112;2024-03-06T11:51:53;17.08;;;15.38;;
18931;SDS011;9598;50.954;3.112;2024-03-06T11:56:58;17.58;;;15.77;;
18931;SDS011;9598;50.954;3.112;2024-03-06T12:02:02;16.45;;;14.77;;
18931;SDS011;9598;50.954;3.112;2024-03-06T12:07:07;15.98;;;13.75;;
18931;SDS011;9598;50.954;3.112;2024-03-06T12:12:10;15.00;;;13.60;;
18931;SDS011;9598;50.954;3.112;2024-03-06T12:17:13;14.85;;;13.35;;
18931;SDS011;9598;50.954;3.112;2024-03-06T12:22:17;16.48;;;13.70;;
18931;SDS011;9598;50.954;3.112;2024-03-06T12:27:26;14.27;;;12.88;;
18931;SDS011;9598;50.954;3.112;2024-03-06T12:32:28;15.32;;;13.93;;
18931;SDS011;9598;50.954;3.112;2024-03-06T12:37:32;15.68;;;14.18;;
18931;SDS011;9598;50.954;3.112;2024-03-06T12:42:34;16.30;;;14.65;;
18931;SDS011;9598;50.954;3.112;2024-03-06T12:47:36;17.50;;;15.70;;
18931;SDS011;9598;50.954;3.112;2024-03-06T12:52:40;16.27;;;14.77;;
18931;SDS011;9598;50.954;3.112;2024-03-06T12:57:46;16.10;;;14.60;;
18931;SDS011;9598;50.954;3.112;2024-03-06T13:02:49;15.95;;;14.45;;
18931;SDS011;9598;50.954;3.112;2024-03-06T13:07:53;15.18;;;13.70;;
18931;SDS011;9598;50.954;3.112;2024-03-06T13:12:55;14.15;;;12.85;;
18931;SDS011;9598;50.954;3.112;2024-03-06T13:17:58;10.48;;;9.38;;
18931;SDS011;9598;50.954;3.112;2024-03-06T13:23:05;11.07;;;10.07;;
18931;SDS011;9598;50.954;3.112;2024-03-06T13:28:07;11.10;;;10.10;;
18931;SDS011;9598;50.954;3.112;2024-03-06T13:33:10;8.55;;;7.35;;
18931;SDS011;9598;50.954;3.112;2024-03-06T13:38:13;7.57;;;6.65;;
18931;SDS011;9598;50.954;3.112;2024-03-06T13:43:16;7.07;;;6.38;;
18931;SDS011;9598;50.954;3.112;2024-03-06T13:48:23;8.10;;;7.40;;
18931;SDS011;9598;50.954;3.112;2024-03-06T13:53:26;6.45;;;5.72;;
18931;SDS011;9598;50.954;3.112;2024-03-06T13:58:29;7.35;;;6.57;;
18931;SDS011;9598;50.954;3.112;2024-03-06T14:03:31;5.65;;;4.95;;
18931;SDS011;9598;50.954;3.112;2024-03-06T14:08:35;11.32;;;10.23;;
18931;SDS011;9598;50.954;3.112;2024-03-06T14:13:42;7.07;;;5.55;;
18931;SDS011;9598;50.954;3.112;2024-03-06T14:18:44;6.60;;;5.97;;
18931;SDS011;9598;50.954;3.112;2024-03-06T14:23:48;7.50;;;6.15;;
18931;SDS011;9598;50.954;3.112;2024-03-06T14:28:50;7.07;;;6.32;;
18931;SDS011;9598;50.954;3.112;2024-03-06T14:33:52;7.70;;;5.85;;
18931;SDS011;9598;50.954;3.112;2024-03-06T14:38:57;6.78;;;6.15;;
18931;SDS011;9598;50.954;3.112;2024-03-06T14:43:59;5.63;;;5.10;;
18931;SDS011;9598;50.954;3.112;2024-03-06T14:49:01;4.85;;;4.35;;
18931;SDS011;9598;50.954;3.112;2024-03-06T14:54:05;5.55;;;4.72;;
18931;SDS011;9598;50.954;3.112;2024-03-06T14:59:08;7.70;;;5.03;;
18931;SDS011;9598;50.954;3.112;2024-03-06T15:04:10;5.60;;;5.07;;
18931;SDS011;9598;50.954;3.112;2024-03-06T15:09:14;6.28;;;4.15;;
18931;SDS011;9598;50.954;3.112;2024-03-06T15:14:22;2.83;;;2.22;;
18931;SDS011;9598;50.954;3.112;2024-03-06T15:19:25;2.42;;;2.22;;
18931;SDS011;9598;50.954;3.112;2024-03-06T15:24:29;3.75;;;2.72;;
18931;SDS011;9598;50.954;3.112;2024-03-06T15:29:31;4.97;;;4.53;;
18931;SDS011;9598;50.954;3.112;2024-03-06T15:34:33;6.15;;;5.55;;
18931;SDS011;9598;50.954;3.112;2024-03-06T15:39:37;3.17;;;2.58;;
18931;SDS011;9598;50.954;3.112;2024-03-06T15:44:39;2.83;;;2.63;;
18931;SDS011;9598;50.954;3.112;2024-03-06T15:49:42;4.72;;;2.80;;
18931;SDS011;9598;50.954;3.112;2024-03-06T15:54:46;4.22;;;3.30;;
18931;SDS011;9598;50.954;3.112;2024-03-06T15:59:49;5.15;;;2.80;;
18931;SDS011;9598;50.954;3.112;2024-03-06T16:04:51;3.55;;;3.00;;
18931;SDS011;9598;50.954;3.112;2024-03-06T16:09:55;5.75;;;3.30;;
18931;SDS011;9598;50.954;3.112;2024-03-06T16:14:57;4.05;;;3.25;;
18931;SDS011;9598;50.954;3.112;2024-03-06T16:19:59;5.40;;;3.53;;
18931;SDS011;9598;50.954;3.112;2024-03-06T16:25:07;4.25;;;3.75;;
18931;SDS011;9598;50.954;3.112;2024-03-06T16:30:10;5.80;;;4.10;;
18931;SDS011;9598;50.954;3.112;2024-03-06T16:35:12;5.85;;;4.25;;
18931;SDS011;9598;50.954;3.112;2024-03-06T16:40:16;5.80;;;4.40;;
18931;SDS011;9598;50.954;3.112;2024-03-06T16:45:18;5.65;;;5.13;;
18931;SDS011;9598;50.954;3.112;2024-03-06T16:50:21;14.20;;;13.00;;
18931;SDS011;9598;50.954;3.112;2024-03-06T16:55:24;6.03;;;4.65;;
18931;SDS011;9598;50.954;3.112;2024-03-06T17:00:27;5.25;;;4.55;;
18931;SDS011;9598;50.954;3.112;2024-03-06T17:05:29;8.77;;;5.50;;
18931;SDS011;9598;50.954;3.112;2024-03-06T17:10:33;9.05;;;6.40;;
18931;SDS011;9598;50.954;3.112;2024-03-06T17:15:35;8.35;;;6.57;;
18931;SDS011;9598;50.954;3.112;2024-03-06T17:20:38;7.40;;;6.10;;
18931;SDS011;9598;50.954;3.112;2024-03-06T17:25:42;9.30;;;6.72;;
18931;SDS011;9598;50.954;3.112;2024-03-06T17:30:44;7.50;;;6.13;;
18931;SDS011;9598;50.954;3.112;2024-03-06T17:35:46;7.60;;;6.68;;
18931;SDS011;9598;50.954;3.112;2024-03-06T17:40:50;6.85;;;6.15;;
18931;SDS011;9598;50.954;3.112;2024-03-06T17:45:53;10.52;;;6.50;;
18931;SDS011;9598;50.954;3.112;2024-03-06T17:50:55;7.93;;;6.32;;
18931;SDS011;9598;50.954;3.112;2024-03-06T17:55:59;7.55;;;6.15;;
18931;SDS011;9598;50.954;3.112;2024-03-06T18:01:03;6.80;;;6.15;;
18931;SDS011;9598;50.954;3.112;2024-03-06T18:06:05;7.53;;;6.38;;
18931;SDS011;9598;50.954;3.112;2024-03-06T18:11:10;8.88;;;6.20;;
18931;SDS011;9598;50.954;3.112;2024-03-06T18:16:12;9.43;;;6.40;;
18931;SDS011;9598;50.954;3.112;2024-03-06T18:21:14;7.05;;;6.32;;
18931;SDS011;9598;50.954;3.112;2024-03-06T18:26:19;9.18;;;7.18;;
18931;SDS011;9598;50.954;3.112;2024-03-06T18:31:22;8.13;;;6.30;;
18931;SDS011;9598;50.954;3.112;2024-03-06T18:36:24;7.95;;;6.78;;
18931;SDS011;9598;50.954;3.112;2024-03-06T18:41:28;8.38;;;7.25;;
18931;SDS011;9598;50.954;3.112;2024-03-06T18:46:30;10.85;;;7.78;;
18931;SDS011;9598;50.954;3.112;2024-03-06T18:51:34;12.63;;;8.82;;
18931;SDS011;9598;50.954;3.112;2024-03-06T18:56:37;10.80;;;9.32;;
18931;SDS011;9598;50.954;3.112;2024-03-06T19:01:40;13.88;;;9.60;;
18931;SDS011;9598;50.954;3.112;2024-03-06T19:06:44;12.10;;;10.52;;
18931;SDS011;9598;50.954;3.112;2024-03-06T19:11:48;16.52;;;10.82;;
18931;SDS011;9598;50.954;3.112;2024-03-06T19:16:53;14.23;;;11.70;;
18931;SDS011;9598;50.954;3.112;2024-03-06T19:21:56;20.88;;;13.73;;
18931;SDS011;9598;50.954;3.112;2024-03-06T19:27:00;20.23;;;18.13;;
18931;SDS011;9598;50.954;3.112;2024-03-06T19:32:02;26.10;;;23.58;;
18931;SDS011;9598;50.954;3.112;2024-03-06T19:37:05;28.73;;;25.88;;
18931;SDS011;9598;50.954;3.112;2024-03-06T19:42:10;27.85;;;25.13;;
18931;SDS011;9598;50.954;3.112;2024-03-06T19:47:12;26.42;;;23.67;;
18931;SDS011;9598;50.954;3.112;2024-03-06T19:52:15;24.38;;;21.85;;
18931;SDS011;9598;50.954;3.112;2024-03-06T19:57:20;26.13;;;23.35;;
18931;SDS011;9598;50.954;3.112;2024-03-06T20:07:46;25.17;;;22.55;;
18931;SDS011;9598;50.954;3.112;2024-03-06T20:12:50;26.00;;;20.95;;
18931;SDS011;9598;50.954;3.112;2024-03-06T20:17:54;26.05;;;23.35;;
18931;SDS011;9598;50.954;3.112;2024-03-06T20:22:57;25.80;;;21.80;;
18931;SDS011;9598;50.954;3.112;2024-03-06T20:28:09;24.38;;;21.90;;
18931;SDS011;9598;50.954;3.112;2024-03-06T20:33:11;23.25;;;21.17;;
18931;SDS011;9598;50.954;3.112;2024-03-06T20:38:13;24.52;;;22.00;;
18931;SDS011;9598;50.954;3.112;2024-03-06T20:43:17;23.45;;;21.08;;
18931;SDS011;9598;50.954;3.112;2024-03-06T20:48:22;23.95;;;21.13;;
18931;SDS011;9598;50.954;3.112;2024-03-06T20:53:24;24.67;;;21.95;;
18931;SDS011;9598;50.954;3.112;2024-03-06T20:58:28;24.98;;;22.40;;
18931;SDS011;9598;50.954;3.112;2024-03-06T21:03:32;22.98;;;20.63;;
18931;SDS011;9598;50.954;3.112;2024-03-06T21:08:35;25.05;;;22.63;;
18931;SDS011;9598;50.954;3.112;2024-03-06T21:13:39;24.33;;;21.83;;
18931;SDS011;9598;50.954;3.112;2024-03-06T21:18:41;24.17;;;21.60;;
18931;SDS011;9598;50.954;3.112;2024-03-06T21:23:43;24.77;;;20.42;;
18931;SDS011;9598;50.954;3.112;2024-03-06T21:28:47;24.17;;;21.52;;
18931;SDS011;9598;50.954;3.112;2024-03-06T21:33:53;22.67;;;20.35;;
18931;SDS011;9598;50.954;3.112;2024-03-06T21:38:56;22.90;;;20.42;;
18931;SDS011;9598;50.954;3.112;2024-03-06T21:44:00;24.40;;;21.92;;
18931;SDS011;9598;50.954;3.112;2024-03-06T21:49:03;23.02;;;20.63;;
18931;SDS011;9598;50.954;3.112;2024-03-06T21:54:08;26.20;;;21.30;;
18931;SDS011;9598;50.954;3.112;2024-03-06T21:59:12;25.23;;;21.70;;
18931;SDS011;9598;50.954;3.112;2024-03-06T22:04:15;26.00;;;23.08;;
18931;SDS011;9598;50.954;3.112;2024-03-06T22:09:17;29.08;;;22.05;;
18931;SDS011;9598;50.954;3.112;2024-03-06T22:14:21;24.95;;;22.00;;
18931;SDS011;9598;50.954;3.112;2024-03-06T22:19:23;25.00;;;22.30;;
18931;SDS011;9598;50.954;3.112;2024-03-06T22:24:26;26.75;;;22.75;;
18931;SDS011;9598;50.954;3.112;2024-03-06T22:29:29;24.10;;;21.70;;
18931;SDS011;9598;50.954;3.112;2024-03-06T22:34:31;25.25;;;22.48;;
18931;SDS011;9598;50.954;3.112;2024-03-06T22:39:34;24.48;;;21.67;;
18931;SDS011;9598;50.954;3.112;2024-03-06T22:44:38;23.83;;;21.23;;
18931;SDS011;9598;50.954;3.112;2024-03-06T22:49:40;23.65;;;21.23;;
18931;SDS011;9598;50.954;3.112;2024-03-06T22:54:43;23.08;;;20.77;;
18931;SDS011;9598;50.954;3.112;2024-03-06T22:59:47;24.52;;;20.75;;
18931;SDS011;9598;50.954;3.112;2024-03-06T23:04:49;23.33;;;20.83;;
18931;SDS011;9598;50.954;3.112;2024-03-06T23:09:52;24.60;;;22.00;;
18931;SDS011;9598;50.954;3.112;2024-03-06T23:14:56;22.42;;;20.02;;
18931;SDS011;9598;50.954;3.112;2024-03-06T23:19:59;23.40;;;21.02;;
18931;SDS011;9598;50.954;3.112;2024-03-06T23:25:05;23.65;;;20.77;;
18931;SDS011;9598;50.954;3.112;2024-03-06T23:30:11;29.65;;;23.00;;
18931;SDS011;9598;50.954;3.112;2024-03-06T23:35:15;24.38;;;21.83;;
18931;SDS011;9598;50.954;3.112;2024-03-06T23:40:18;23.63;;;20.92;;
18931;SDS011;9598;50.954;3.112;2024-03-06T23:45:24;24.98;;;22.33;;
18931;SDS011;9598;50.954;3.112;2024-03-06T23:50:27;30.77;;;23.15;;
18931;SDS011;9598;50.954;3.112;2024-03-06T23:55:29;26.77;;;22.63;;
